createdAt,value
2023-11-13T00:02:14.771Z,5.20
2023-11-13T00:04:46.857Z,7.50
2023-11-13T00:07:14.385Z,4.22
2023-11-13T00:09:43.903Z,3.45
2023-11-13T00:12:13.265Z,5.82
2023-11-13T00:14:40.208Z,3.45
2023-11-13T00:17:07.182Z,4.95
2023-11-13T00:19:34.239Z,4.20
2023-11-13T00:22:03.719Z,3.22
2023-11-13T00:24:35.167Z,3.53
2023-11-13T00:27:06.712Z,8.63
2023-11-13T00:32:08.011Z,3.53
2023-11-13T00:34:37.686Z,5.50
2023-11-13T00:37:05.445Z,6.30
2023-11-13T00:39:33.545Z,9.48
2023-11-13T00:42:00.930Z,3.25
2023-11-13T00:44:30.053Z,4.95
2023-11-13T00:46:59.169Z,3.25
2023-11-13T00:49:26.144Z,2.22
2023-11-13T00:51:55.390Z,2.03
2023-11-13T00:54:22.890Z,2.65
2023-11-13T00:56:54.933Z,0.60
2023-11-13T00:59:24.479Z,0.95
2023-11-13T01:01:53.721Z,0.98
2023-11-13T01:04:20.743Z,0.88
2023-11-13T01:06:49.884Z,0.40
2023-11-13T01:09:16.912Z,0.57
2023-11-13T01:11:44.637Z,0.75
2023-11-13T01:14:11.752Z,1.38
2023-11-13T01:16:43.434Z,1.10
2023-11-13T01:19:10.467Z,0.80
2023-11-13T01:21:39.917Z,1.20
2023-11-13T01:24:07.186Z,0.85
2023-11-13T01:26:34.395Z,0.82
2023-11-13T01:29:01.277Z,0.68
2023-11-13T01:31:28.229Z,0.75
2023-11-13T01:33:55.228Z,0.70
2023-11-13T01:36:22.141Z,0.80
2023-11-13T01:38:51.728Z,0.40
2023-11-13T01:41:20.711Z,0.40
2023-11-13T01:43:49.715Z,1.00
2023-11-13T01:46:18.623Z,1.05
2023-11-13T01:48:48.008Z,0.30
2023-11-13T01:51:15.214Z,1.73
2023-11-13T01:53:42.448Z,1.10
2023-11-13T01:56:09.721Z,0.93
2023-11-13T01:58:36.682Z,2.72
2023-11-13T02:01:08.591Z,1.38
2023-11-13T02:03:36.292Z,2.05
2023-11-13T02:06:05.837Z,1.27
2023-11-13T02:08:35.121Z,1.10
2023-11-13T02:11:07.931Z,0.85
2023-11-13T02:13:35.381Z,1.23
2023-11-13T02:16:02.451Z,2.60
2023-11-13T02:18:29.474Z,2.63
2023-11-13T02:20:58.957Z,7.22
2023-11-13T02:23:28.315Z,3.45
2023-11-13T02:25:59.102Z,4.40
2023-11-13T02:28:26.253Z,4.30
2023-11-13T02:30:53.148Z,2.83
2023-11-13T02:33:20.073Z,4.00
2023-11-13T02:35:47.991Z,2.45
2023-11-13T02:38:15.063Z,3.72
2023-11-13T02:40:41.923Z,5.05
2023-11-13T02:43:08.867Z,3.72
2023-11-13T02:45:40.328Z,2.90
2023-11-13T02:48:07.713Z,5.10
2023-11-13T02:50:34.788Z,3.90
2023-11-13T02:53:01.778Z,3.90
2023-11-13T02:55:28.815Z,4.20
2023-11-13T02:57:58.282Z,3.95
2023-11-13T03:00:25.298Z,4.95
2023-11-13T03:02:52.642Z,2.72
2023-11-13T03:05:22.136Z,5.30
2023-11-13T03:07:51.667Z,5.97
2023-11-13T03:10:18.628Z,4.93
2023-11-13T03:12:45.575Z,4.97
2023-11-13T03:15:12.505Z,6.90
2023-11-13T03:17:39.432Z,5.93
2023-11-13T03:20:08.030Z,4.95
2023-11-13T03:22:39.643Z,8.20
2023-11-13T03:25:07.137Z,5.90
2023-11-13T03:27:34.091Z,6.80
2023-11-13T03:30:00.984Z,5.75
2023-11-13T03:32:32.697Z,5.03
2023-11-13T03:34:59.715Z,4.22
2023-11-13T03:37:31.140Z,4.25
2023-11-13T03:39:58.245Z,9.35
2023-11-13T03:42:27.696Z,5.35
2023-11-13T03:44:54.565Z,5.68
2023-11-13T03:47:21.555Z,4.32
2023-11-13T03:49:50.819Z,5.80
2023-11-13T03:52:17.755Z,5.00
2023-11-13T03:54:49.342Z,6.20
2023-11-13T03:59:45.578Z,6.05
2023-11-13T04:02:12.499Z,7.22
2023-11-13T04:04:39.516Z,5.05
2023-11-13T04:07:09.556Z,4.78
2023-11-13T04:09:39.024Z,7.20
2023-11-13T04:12:11.069Z,6.50
2023-11-13T04:14:37.998Z,8.80
2023-11-13T04:17:08.170Z,11.07
2023-11-13T04:19:35.079Z,7.45
2023-11-13T04:22:04.170Z,7.53
2023-11-13T04:24:31.070Z,6.60
2023-11-13T04:26:58.037Z,5.97
2023-11-13T04:29:32.442Z,8.52
2023-11-13T04:31:59.593Z,7.45
2023-11-13T04:34:26.557Z,9.20
2023-11-13T04:36:55.747Z,6.43
2023-11-13T04:39:24.458Z,6.13
2023-11-13T04:41:53.852Z,5.57
2023-11-13T04:44:20.734Z,8.95
2023-11-13T04:46:51.354Z,5.50
2023-11-13T04:49:18.442Z,8.07
2023-11-13T04:51:49.998Z,9.48
2023-11-13T04:56:46.221Z,5.57
2023-11-13T04:59:15.681Z,8.05
2023-11-13T05:01:43.298Z,8.50
2023-11-13T05:04:11.077Z,6.88
2023-11-13T05:06:40.468Z,9.65
2023-11-13T05:09:09.996Z,6.00
2023-11-13T05:11:36.903Z,8.35
2023-11-13T05:14:08.544Z,5.93
2023-11-13T05:16:35.515Z,4.72
2023-11-13T05:19:04.393Z,6.38
2023-11-13T05:21:31.582Z,4.25
2023-11-13T05:23:59.114Z,3.28
2023-11-13T05:26:28.520Z,4.15
2023-11-13T05:28:56.272Z,4.97
2023-11-13T05:31:23.284Z,3.92
2023-11-13T05:33:50.262Z,6.43
2023-11-13T05:36:19.804Z,5.30
2023-11-13T05:38:47.137Z,4.07
2023-11-13T05:41:14.321Z,5.28
2023-11-13T05:43:43.585Z,3.83
2023-11-13T05:46:10.864Z,7.20
2023-11-13T05:48:40.101Z,4.40
2023-11-13T05:51:07.254Z,3.08
2023-11-13T05:53:37.212Z,8.63
2023-11-13T05:56:05.194Z,3.83
2023-11-13T05:58:32.192Z,2.38
2023-11-13T06:01:01.651Z,2.13
2023-11-13T06:03:28.577Z,2.15
2023-11-13T06:05:55.478Z,2.72
2023-11-13T06:08:22.394Z,2.42
2023-11-13T06:10:51.577Z,6.55
2023-11-13T06:13:18.497Z,4.57
2023-11-13T06:15:47.619Z,5.10
2023-11-13T06:18:17.342Z,4.30
2023-11-13T06:20:46.158Z,5.45
2023-11-13T06:23:13.684Z,4.95
2023-11-13T06:25:40.776Z,6.35
2023-11-13T06:28:08.105Z,4.32
2023-11-13T06:30:37.257Z,3.25
2023-11-13T06:33:06.929Z,4.18
2023-11-13T06:35:38.348Z,5.60
2023-11-13T06:38:08.935Z,3.47
2023-11-13T06:40:38.755Z,4.43
2023-11-13T06:43:05.796Z,4.15
2023-11-13T06:45:32.733Z,2.55
2023-11-13T06:48:01.996Z,2.15
2023-11-13T06:50:31.471Z,2.10
2023-11-13T06:53:01.020Z,2.05
2023-11-13T06:55:28.028Z,2.05
2023-11-13T06:57:57.520Z,3.67
2023-11-13T07:00:26.713Z,4.75
2023-11-13T07:02:53.755Z,4.50
2023-11-13T07:05:21.637Z,5.03
2023-11-13T07:07:49.045Z,5.90
2023-11-13T07:10:20.092Z,6.35
2023-11-13T07:12:50.580Z,5.93
2023-11-13T07:15:22.275Z,4.22
2023-11-13T07:17:54.189Z,5.32
2023-11-13T07:20:23.813Z,5.10
2023-11-13T07:22:53.592Z,3.63
2023-11-13T07:25:25.468Z,3.35
2023-11-13T07:27:54.767Z,2.15
2023-11-13T07:30:21.743Z,3.80
2023-11-13T07:32:48.770Z,2.85
2023-11-13T07:35:18.743Z,2.42
2023-11-13T07:37:46.251Z,1.60
2023-11-13T07:40:15.748Z,1.17
2023-11-13T07:42:44.892Z,1.13
2023-11-13T07:45:16.963Z,1.58
2023-11-13T07:47:46.390Z,1.45
2023-11-13T07:50:17.952Z,1.80
2023-11-13T07:55:14.694Z,2.42
2023-11-13T07:57:45.852Z,2.42
2023-11-13T08:00:17.434Z,1.23
2023-11-13T08:02:47.017Z,1.40
2023-11-13T08:05:21.176Z,1.10
2023-11-13T08:07:53.075Z,1.63
2023-11-13T08:10:22.726Z,1.25
2023-11-13T08:12:52.188Z,1.58
2023-11-13T08:15:21.169Z,0.63
2023-11-13T08:17:54.052Z,1.50
2023-11-13T08:20:27.309Z,2.08
2023-11-13T08:22:58.663Z,4.07
2023-11-13T08:25:26.664Z,2.40
2023-11-13T08:27:53.988Z,4.28
2023-11-13T08:30:24.707Z,2.88
2023-11-13T08:32:54.140Z,2.28
2023-11-13T08:35:21.700Z,1.38
2023-11-13T08:37:51.938Z,1.58
2023-11-13T08:40:26.409Z,1.35
2023-11-13T08:42:54.582Z,1.05
2023-11-13T08:45:25.191Z,2.42
2023-11-13T08:47:57.835Z,2.83
2023-11-13T08:50:25.893Z,1.45
2023-11-13T08:52:58.464Z,1.77
2023-11-13T08:55:27.023Z,2.97
2023-11-13T08:57:58.720Z,2.47
2023-11-13T09:00:30.365Z,2.60
2023-11-13T09:05:27.984Z,1.50
2023-11-13T09:07:58.430Z,2.17
2023-11-13T09:10:29.391Z,1.85
2023-11-13T09:13:02.659Z,1.48
2023-11-13T09:15:34.023Z,1.20
2023-11-13T09:18:07.118Z,3.03
2023-11-13T09:20:36.175Z,1.30
2023-11-13T09:23:06.079Z,2.63
2023-11-13T09:25:33.740Z,1.65
2023-11-13T09:28:01.449Z,2.95
2023-11-13T09:30:31.957Z,2.70
2023-11-13T09:33:02.516Z,1.85
2023-11-13T09:35:36.156Z,2.40
2023-11-13T09:38:03.809Z,1.30
2023-11-13T09:40:37.039Z,2.45
2023-11-13T09:43:20.349Z,1.80
2023-11-13T09:45:58.091Z,1.17
2023-11-13T09:48:32.296Z,2.15
2023-11-13T09:50:59.875Z,3.05
2023-11-13T09:53:30.219Z,1.50
2023-11-13T09:55:57.943Z,1.97
2023-11-13T09:58:25.495Z,1.40
2023-11-13T10:00:53.333Z,1.05
2023-11-13T10:03:22.655Z,1.10
2023-11-13T10:05:50.647Z,1.02
2023-11-13T10:08:18.578Z,1.77
2023-11-13T10:10:46.806Z,1.85
2023-11-13T10:13:24.664Z,1.30
2023-11-13T10:15:54.667Z,2.85
2023-11-13T10:18:30.275Z,2.00
2023-11-13T10:21:01.306Z,1.25
2023-11-13T10:23:35.985Z,1.05
2023-11-13T10:26:03.118Z,2.78
2023-11-13T10:28:46.719Z,2.30
2023-11-13T10:31:18.546Z,3.47
2023-11-13T10:34:04.598Z,2.83
2023-11-13T10:36:33.972Z,1.40
2023-11-13T10:39:01.242Z,3.13
2023-11-13T10:41:30.966Z,3.50
2023-11-13T10:43:58.018Z,1.15
2023-11-13T10:46:37.648Z,1.50
2023-11-13T10:49:13.250Z,2.97
2023-11-13T10:51:42.188Z,2.95
2023-11-13T10:54:12.101Z,1.27
2023-11-13T10:56:45.939Z,1.52
2023-11-13T10:59:15.313Z,4.97
2023-11-13T11:01:44.796Z,3.08
2023-11-13T11:04:12.563Z,2.28
2023-11-13T11:06:42.481Z,2.42
2023-11-13T11:09:19.133Z,1.92
2023-11-13T11:11:48.668Z,2.15
2023-11-13T11:14:23.694Z,1.58
2023-11-13T11:17:03.823Z,3.28
2023-11-13T11:19:45.889Z,3.13
2023-11-13T11:22:30.290Z,1.75
2023-11-13T11:25:14.335Z,1.48
2023-11-13T11:27:44.462Z,6.30
2023-11-13T11:30:26.588Z,2.70
2023-11-13T11:33:01.703Z,4.10
2023-11-13T11:35:36.228Z,2.25
2023-11-13T11:38:28.559Z,1.92
2023-11-13T11:40:59.894Z,2.50
2023-11-13T11:43:32.470Z,2.20
2023-11-13T11:46:00.483Z,2.28
2023-11-13T11:48:32.207Z,1.92
2023-11-13T11:51:16.682Z,2.22
2023-11-13T11:54:00.722Z,2.08
2023-11-13T11:56:32.737Z,2.83
2023-11-13T11:59:00.331Z,2.25
2023-11-13T12:01:29.497Z,2.90
2023-11-13T12:03:59.020Z,1.85
2023-11-13T12:06:27.936Z,2.90
2023-11-13T12:08:59.679Z,3.25
2023-11-13T12:11:29.025Z,4.28
2023-11-13T12:13:56.221Z,2.67
2023-11-13T12:16:23.660Z,5.18
2023-11-13T12:18:53.165Z,3.08
2023-11-13T12:21:20.089Z,4.80
2023-11-13T12:23:53.285Z,4.40
2023-11-13T12:26:20.529Z,2.47
2023-11-13T12:28:50.612Z,4.70
2023-11-13T12:31:21.141Z,3.03
2023-11-13T12:33:50.732Z,2.80
2023-11-13T12:36:18.501Z,1.88
2023-11-13T12:38:48.920Z,4.63
2023-11-13T12:41:16.148Z,3.38
2023-11-13T12:43:46.177Z,1.90
2023-11-13T12:46:18.073Z,1.50
2023-11-13T12:48:46.870Z,2.72
2023-11-13T12:51:14.043Z,2.60
2023-11-13T12:53:48.844Z,3.70
2023-11-13T12:56:18.095Z,5.05
2023-11-13T12:58:45.416Z,1.83
2023-11-13T13:01:16.794Z,1.27
2023-11-13T13:03:48.238Z,1.48
2023-11-13T13:06:15.255Z,1.80
2023-11-13T13:08:43.053Z,7.95
2023-11-13T13:11:15.240Z,2.15
2023-11-13T13:13:50.022Z,2.05
2023-11-13T13:16:22.663Z,1.80
2023-11-13T13:18:53.119Z,1.52
2023-11-13T13:21:23.251Z,2.15
2023-11-13T13:23:52.426Z,1.05
2023-11-13T13:26:21.934Z,1.40
2023-11-13T13:28:55.551Z,3.92
2023-11-13T13:31:25.855Z,4.80
2023-11-13T13:33:54.519Z,3.03
2023-11-13T13:36:21.426Z,3.63
2023-11-13T13:38:48.463Z,2.33
2023-11-13T13:41:22.837Z,2.70
2023-11-13T13:43:51.052Z,3.35
2023-11-13T13:46:19.500Z,3.13
2023-11-13T13:48:46.525Z,3.97
2023-11-13T13:51:17.284Z,2.38
2023-11-13T13:53:45.868Z,1.75
2023-11-13T13:56:21.761Z,2.75
2023-11-13T13:58:51.391Z,1.35
2023-11-13T14:01:20.542Z,2.67
2023-11-13T14:03:47.654Z,1.67
2023-11-13T14:06:16.959Z,2.92
2023-11-13T14:08:45.895Z,2.47
2023-11-13T14:11:14.919Z,2.05
2023-11-13T14:13:47.639Z,2.45
2023-11-13T14:16:18.671Z,2.38
2023-11-13T14:18:54.241Z,2.28
2023-11-13T14:21:21.185Z,2.65
2023-11-13T14:23:48.757Z,1.30
2023-11-13T14:26:16.157Z,2.78
2023-11-13T14:28:43.985Z,1.90
2023-11-13T14:31:13.530Z,1.38
2023-11-13T14:33:40.830Z,2.53
2023-11-13T14:36:11.538Z,2.55
2023-11-13T14:38:41.048Z,1.80
2023-11-13T14:41:09.496Z,2.72
2023-11-13T14:43:36.594Z,2.58
2023-11-13T14:46:09.928Z,1.60
2023-11-13T14:48:37.013Z,1.55
2023-11-13T14:51:06.599Z,1.10
2023-11-13T14:53:37.484Z,2.20
2023-11-13T14:56:05.187Z,2.45
2023-11-13T14:58:34.614Z,2.53
2023-11-13T15:01:04.351Z,2.03
2023-11-13T15:03:34.033Z,2.60
2023-11-13T15:06:01.057Z,3.05
2023-11-13T15:08:31.071Z,2.58
2023-11-13T15:11:08.422Z,1.55
2023-11-13T15:13:35.344Z,2.90
2023-11-13T15:16:05.365Z,1.83
2023-11-13T15:18:45.151Z,2.40
2023-11-13T15:21:21.523Z,3.25
2023-11-13T15:23:48.760Z,4.22
2023-11-13T15:26:19.114Z,2.38
2023-11-13T15:28:46.163Z,2.88
2023-11-13T15:31:13.740Z,2.28
2023-11-13T15:33:40.654Z,8.00
2023-11-13T15:36:08.348Z,3.50
2023-11-13T15:38:35.223Z,1.17
2023-11-13T15:41:04.968Z,2.65
2023-11-13T15:43:32.026Z,2.85
2023-11-13T15:45:58.996Z,1.42
2023-11-13T15:48:28.474Z,2.33
2023-11-13T15:50:58.578Z,3.28
2023-11-13T15:53:25.510Z,2.75
2023-11-13T15:55:53.186Z,1.90
2023-11-13T15:58:22.678Z,2.22
2023-11-13T16:00:49.759Z,1.73
2023-11-13T16:03:17.013Z,2.13
2023-11-13T16:05:44.151Z,3.30
2023-11-13T16:08:17.237Z,2.67
2023-11-13T16:10:47.145Z,3.53
2023-11-13T16:13:14.066Z,2.03
2023-11-13T16:15:43.225Z,1.48
2023-11-13T16:18:10.952Z,1.77
2023-11-13T16:20:37.915Z,1.88
2023-11-13T16:23:05.666Z,2.03
2023-11-13T16:25:32.685Z,1.40
2023-11-13T16:27:59.621Z,1.42
2023-11-13T16:30:32.371Z,2.42
2023-11-13T16:33:05.091Z,1.63
2023-11-13T16:35:34.533Z,1.88
2023-11-13T16:38:03.705Z,1.00
2023-11-13T16:40:33.160Z,1.52
2023-11-13T16:43:00.098Z,1.05
2023-11-13T16:45:29.173Z,1.55
2023-11-13T16:47:57.032Z,1.17
2023-11-13T16:50:27.850Z,0.90
2023-11-13T16:52:54.980Z,1.35
2023-11-13T16:55:22.010Z,1.02
2023-11-13T16:57:48.960Z,1.38
2023-11-13T17:00:21.187Z,1.45
2023-11-13T17:02:53.870Z,2.15
2023-11-13T17:05:20.956Z,2.33
2023-11-13T17:07:48.049Z,1.40
2023-11-13T17:10:16.598Z,1.30
2023-11-13T17:12:44.033Z,1.85
2023-11-13T17:15:13.060Z,1.02
2023-11-13T17:17:44.222Z,2.17
2023-11-13T17:20:12.330Z,1.67
2023-11-13T17:25:09.846Z,0.95
2023-11-13T17:27:37.450Z,1.50
2023-11-13T17:30:09.736Z,1.65
2023-11-13T17:32:40.493Z,2.15
2023-11-13T17:35:10.747Z,1.40
2023-11-13T17:37:40.789Z,2.08
2023-11-13T17:40:09.388Z,1.95
2023-11-13T17:42:37.240Z,1.08
2023-11-13T17:45:08.782Z,2.13
2023-11-13T17:47:36.717Z,1.23
2023-11-13T17:50:11.380Z,1.15
2023-11-13T17:52:45.570Z,1.15
2023-11-13T17:55:15.085Z,1.65
2023-11-13T17:57:44.357Z,1.48
2023-11-13T18:00:12.586Z,1.05
2023-11-13T18:02:40.873Z,1.00
2023-11-13T18:05:12.342Z,1.05
2023-11-13T18:10:09.394Z,1.67
2023-11-13T18:12:37.106Z,1.23
2023-11-13T18:15:05.487Z,1.20
2023-11-13T18:17:32.753Z,1.10
2023-11-13T18:19:59.780Z,1.33
2023-11-13T18:22:31.706Z,13.50
2023-11-13T18:25:02.313Z,1.33
2023-11-13T18:27:29.213Z,1.63
2023-11-13T18:29:56.307Z,0.75
2023-11-13T18:32:23.805Z,0.93
2023-11-13T18:34:52.814Z,1.08
2023-11-13T18:37:22.271Z,1.05
2023-11-13T18:39:51.854Z,1.02
2023-11-13T18:42:19.233Z,0.85
2023-11-13T18:44:46.116Z,0.65
2023-11-13T18:47:13.294Z,1.15
2023-11-13T18:49:40.372Z,0.70
2023-11-13T18:52:08.012Z,0.80
2023-11-13T18:54:34.926Z,0.40
2023-11-13T18:57:01.796Z,0.70
2023-11-13T18:59:28.743Z,0.50
2023-11-13T19:01:56.079Z,0.50
2023-11-13T19:04:23.183Z,0.47
2023-11-13T19:06:53.287Z,0.77
2023-11-13T19:09:22.888Z,0.80
2023-11-13T19:11:54.908Z,0.50
2023-11-13T19:14:22.053Z,4.53
2023-11-13T19:16:50.546Z,0.25
2023-11-13T19:19:17.768Z,0.60
2023-11-13T19:21:47.247Z,0.47
2023-11-13T19:24:17.010Z,0.65
2023-11-13T19:26:43.958Z,0.70
2023-11-13T19:29:11.535Z,0.90
2023-11-13T19:31:38.436Z,0.63
2023-11-13T19:34:05.576Z,0.60
2023-11-13T19:36:35.095Z,0.85
2023-11-13T19:39:02.042Z,0.50
2023-11-13T19:41:31.596Z,0.45
2023-11-13T19:43:58.709Z,0.50
2023-11-13T19:46:28.716Z,0.98
2023-11-13T19:48:55.703Z,0.50
2023-11-13T19:51:27.197Z,1.08
2023-11-13T19:53:54.811Z,0.63
2023-11-13T19:56:21.758Z,0.55
2023-11-13T19:58:51.660Z,0.40
2023-11-13T20:01:18.826Z,0.70
2023-11-13T20:03:48.033Z,0.40
2023-11-13T20:06:19.691Z,0.55
2023-11-13T20:08:50.218Z,0.50
2023-11-13T20:11:26.234Z,0.40
2023-11-13T20:13:53.319Z,0.52
2023-11-13T20:16:22.693Z,0.52
2023-11-13T20:18:52.535Z,0.47
2023-11-13T20:21:19.546Z,0.60
2023-11-13T20:23:46.522Z,0.52
2023-11-13T20:26:15.926Z,0.73
2023-11-13T20:28:45.111Z,0.85
2023-11-13T20:31:14.658Z,0.70
2023-11-13T20:33:43.882Z,0.45
2023-11-13T20:36:11.622Z,0.35
2023-11-13T20:38:38.632Z,0.40
2023-11-13T20:41:05.757Z,1.90
2023-11-13T20:43:33.033Z,0.50
2023-11-13T20:46:03.909Z,0.68
2023-11-13T20:48:36.358Z,0.52
2023-11-13T20:51:04.711Z,2.47
2023-11-13T20:53:32.226Z,0.40
2023-11-13T20:56:02.212Z,1.08
2023-11-13T20:58:30.246Z,0.55
2023-11-13T21:01:00.534Z,0.47
2023-11-13T21:03:30.523Z,1.85
2023-11-13T21:06:06.777Z,0.82
2023-11-13T21:08:35.704Z,0.50
2023-11-13T21:11:08.042Z,1.98
2023-11-13T21:13:37.577Z,0.40
2023-11-13T21:16:04.997Z,0.77
2023-11-13T21:18:32.659Z,0.45
2023-11-13T21:21:00.848Z,0.60
2023-11-13T21:23:31.090Z,0.38
2023-11-13T21:26:01.268Z,0.40
2023-11-13T21:28:32.232Z,0.90
2023-11-13T21:30:59.291Z,0.50
2023-11-13T21:33:29.947Z,0.90
2023-11-13T21:35:59.040Z,1.08
2023-11-13T21:38:26.106Z,0.45
2023-11-13T21:40:53.074Z,0.85
2023-11-13T21:43:21.552Z,0.50
2023-11-13T21:45:48.652Z,1.27
2023-11-13T21:48:15.678Z,0.52
2023-11-13T21:50:48.793Z,0.50
2023-11-13T21:53:17.926Z,0.82
2023-11-13T21:55:44.963Z,0.77
2023-11-13T21:58:14.184Z,1.38
2023-11-13T22:00:41.191Z,0.75
2023-11-13T22:03:12.347Z,0.52
2023-11-13T22:05:39.332Z,0.40
2023-11-13T22:08:06.237Z,1.20
2023-11-13T22:10:33.847Z,0.20
2023-11-13T22:13:02.409Z,0.60
2023-11-13T22:15:31.846Z,0.38
2023-11-13T22:17:58.885Z,2.80
2023-11-13T22:20:29.284Z,0.43
2023-11-13T22:22:59.061Z,0.47
2023-11-13T22:25:26.105Z,0.43
2023-11-13T22:27:55.756Z,0.45
2023-11-13T22:30:25.159Z,0.38
2023-11-13T22:32:52.444Z,1.42
2023-11-13T22:35:21.593Z,0.20
2023-11-13T22:37:48.630Z,0.30
2023-11-13T22:40:15.694Z,0.65
2023-11-13T22:42:43.821Z,0.63
2023-11-13T22:45:11.349Z,1.67
2023-11-13T22:47:38.383Z,1.17
2023-11-13T22:50:09.141Z,1.13
2023-11-13T22:52:36.527Z,0.40
2023-11-13T22:55:03.536Z,0.38
2023-11-13T22:57:32.872Z,0.38
2023-11-13T23:00:05.314Z,0.45
2023-11-13T23:02:34.541Z,0.32
2023-11-13T23:05:04.045Z,3.58
2023-11-13T23:07:31.039Z,1.23
2023-11-13T23:10:00.946Z,0.30
2023-11-13T23:12:28.462Z,0.93
2023-11-13T23:14:56.066Z,0.80
2023-11-13T23:17:23.034Z,0.77
2023-11-13T23:19:52.560Z,2.40
2023-11-13T23:22:19.531Z,1.00
2023-11-13T23:24:49.441Z,2.63
2023-11-13T23:27:16.288Z,1.48
2023-11-13T23:29:43.189Z,1.00
2023-11-13T23:32:11.388Z,0.95
2023-11-13T23:34:40.718Z,3.63
2023-11-13T23:37:12.433Z,2.63
2023-11-13T23:39:39.397Z,2.50
2023-11-13T23:42:08.908Z,3.75
2023-11-13T23:44:38.836Z,2.13
2023-11-13T23:47:09.187Z,1.08
2023-11-13T23:49:39.249Z,0.45
2023-11-13T23:52:08.695Z,2.08
2023-11-13T23:54:38.153Z,0.93
2023-11-13T23:57:05.337Z,1.42
2023-11-13T23:59:34.547Z,1.20
